Time,TemperatureF,DewpointF,PressureIn,WindDirection,WindDirectionDegrees,WindSpeedMPH,WindSpeedGustMPH,Humidity,HourlyPrecipIn,Conditions,Clouds,dailyrainin,SoftwareType,DateUTC
2013-10-18 00:00:00,42.7,41.4,29.92,West,277,1.0,1.0,95,0.00,,,0.00,Wunderground v.1.15,2013-10-18 04:00:00,
2013-10-18 00:05:00,42.5,41.2,29.93,West,278,1.0,1.0,95,0.00,,,0.00,Wunderground v.1.15,2013-10-18 04:05:00,
2013-10-18 00:10:00,42.3,41.0,29.93,WNW,289,1.0,2.0,95,0.00,,,0.00,Wunderground v.1.15,2013-10-18 04:10:00,
2013-10-18 00:15:00,42.2,40.9,29.93,WSW,244,1.0,2.0,95,0.00,,,0.00,Wunderground v.1.15,2013-10-18 04:15:00,
2013-10-18 00:20:00,42.0,40.9,29.92,WNW,287,1.0,3.0,96,0.00,,,0.00,Wunderground v.1.15,2013-10-18 04:20:00,
2013-10-18 00:25:00,41.9,40.8,29.93,West,271,1.0,3.0,96,0.00,,,0.00,Wunderground v.1.15,2013-10-18 04:25:00,
2013-10-18 00:30:00,41.9,40.8,29.93,West,275,1.0,1.0,96,0.00,,,0.00,Wunderground v.1.15,2013-10-18 04:30:00,
2013-10-18 00:35:00,41.7,40.4,29.93,WSW,250,1.0,1.0,95,0.00,,,0.00,Wunderground v.1.15,2013-10-18 04:35:00,
2013-10-18 00:40:00,41.6,40.5,29.93,West,266,1.0,1.0,96,0.00,,,0.00,Wunderground v.1.15,2013-10-18 04:40:00,
2013-10-18 00:45:00,41.5,40.4,29.93,West,266,1.0,1.0,96,0.00,,,0.00,Wunderground v.1.15,2013-10-18 04:45:00,
2013-10-18 00:55:00,41.3,40.2,29.93,WSW,249,1.0,1.0,96,0.00,,,0.00,Wunderground v.1.15,2013-10-18 04:55:00,
2013-10-18 01:00:00,41.2,40.1,29.93,WNW,302,0.0,0.0,96,0.00,,,0.00,Wunderground v.1.15,2013-10-18 05:00:00,
2013-10-18 01:10:00,41.1,40.0,29.93,West,266,1.0,1.0,96,0.00,,,0.00,Wunderground v.1.15,2013-10-18 05:10:00,
2013-10-18 01:15:00,41.1,40.0,29.93,West,263,1.0,1.0,96,0.00,,,0.00,Wunderground v.1.15,2013-10-18 05:15:00,
2013-10-18 01:25:00,40.8,39.7,29.93,West,259,0.0,0.0,96,0.00,,,0.00,Wunderground v.1.15,2013-10-18 05:25:00,
2013-10-18 01:30:00,40.8,39.7,29.93,WNW,283,0.0,0.0,96,0.00,,,0.00,Wunderground v.1.15,2013-10-18 05:30:00,
2013-10-18 01:35:00,40.7,39.6,29.93,WNW,284,0.0,0.0,96,0.00,,,0.00,Wunderground v.1.15,2013-10-18 05:35:00,
2013-10-18 01:40:00,40.5,39.4,29.93,WNW,284,0.0,0.0,96,0.00,,,0.00,Wunderground v.1.15,2013-10-18 05:40:00,
2013-10-18 01:45:00,40.3,39.3,29.93,WNW,284,0.0,0.0,96,0.00,,,0.00,Wunderground v.1.15,2013-10-18 05:45:00,
2013-10-18 01:50:00,40.1,39.1,29.93,WNW,284,0.0,0.0,96,0.00,,,0.00,Wunderground v.1.15,2013-10-18 05:50:00,
2013-10-18 02:00:00,39.9,39.1,29.93,WNW,284,0.0,0.0,97,0.00,,,0.00,Wunderground v.1.15,2013-10-18 06:00:00,
2013-10-18 02:10:00,39.8,39.0,29.93,WSW,238,0.0,0.0,97,0.00,,,0.00,Wunderground v.1.15,2013-10-18 06:10:00,
2013-10-18 02:15:00,39.6,38.8,29.93,WSW,242,0.0,0.0,97,0.00,,,0.00,Wunderground v.1.15,2013-10-18 06:15:00,
2013-10-18 02:20:00,39.6,38.8,29.93,WSW,252,0.0,0.0,97,0.00,,,0.00,Wunderground v.1.15,2013-10-18 06:20:00,
2013-10-18 02:30:00,39.5,38.7,29.93,SSW,212,0.0,0.0,97,0.00,,,0.00,Wunderground v.1.15,2013-10-18 06:30:00,
2013-10-18 02:35:00,39.5,38.7,29.93,WSW,255,0.0,0.0,97,0.00,,,0.01,Wunderground v.1.15,2013-10-18 06:35:00,
2013-10-18 02:40:00,39.6,38.8,29.93,SW,222,0.0,0.0,97,0.00,,,0.01,Wunderground v.1.15,2013-10-18 06:40:00,
2013-10-18 02:45:00,39.6,38.8,29.93,WSW,240,1.0,1.0,97,0.00,,,0.01,Wunderground v.1.15,2013-10-18 06:45:00,
2013-10-18 02:50:00,39.6,38.8,29.93,WSW,248,1.0,1.0,97,0.00,,,0.01,Wunderground v.1.15,2013-10-18 06:50:00,
2013-10-18 02:55:00,39.7,39.2,29.93,West,280,1.0,1.0,98,0.00,,,0.01,Wunderground v.1.15,2013-10-18 06:55:00,
2013-10-18 03:00:00,39.7,38.9,29.93,West,263,1.0,1.0,97,0.00,,,0.01,Wunderground v.1.15,2013-10-18 07:00:00,
2013-10-18 03:10:00,40.0,39.2,29.93,WSW,247,1.0,1.0,97,0.00,,,0.01,Wunderground v.1.15,2013-10-18 07:10:00,
2013-10-18 03:15:00,40.0,39.2,29.93,SW,226,1.0,1.0,97,0.00,,,0.01,Wunderground v.1.15,2013-10-18 07:15:00,
2013-10-18 03:20:00,40.0,39.2,29.93,SW,220,1.0,2.0,97,0.00,,,0.01,Wunderground v.1.15,2013-10-18 07:20:00,
2013-10-18 03:25:00,39.9,39.1,29.93,WSW,244,1.0,2.0,97,0.00,,,0.01,Wunderground v.1.15,2013-10-18 07:25:00,
2013-10-18 03:30:00,39.8,39.0,29.93,SW,219,1.0,1.0,97,0.00,,,0.01,Wunderground v.1.15,2013-10-18 07:30:00,
2013-10-18 03:35:00,39.5,38.5,29.93,SW,219,0.0,1.0,96,0.00,,,0.01,Wunderground v.1.15,2013-10-18 07:35:00,
2013-10-18 03:40:00,39.2,38.2,29.93,SW,215,0.0,0.0,96,0.00,,,0.01,Wunderground v.1.15,2013-10-18 07:40:00,
2013-10-18 03:50:00,38.8,38.0,29.93,SW,215,0.0,0.0,97,0.00,,,0.01,Wunderground v.1.15,2013-10-18 07:50:00,
2013-10-18 03:55:00,38.6,37.8,29.93,SW,215,0.0,0.0,97,0.00,,,0.01,Wunderground v.1.15,2013-10-18 07:55:00,
2013-10-18 04:00:00,38.5,37.7,29.93,SW,215,0.0,0.0,97,0.00,,,0.01,Wunderground v.1.15,2013-10-18 08:00:00,
2013-10-18 04:05:00,38.5,37.7,29.93,SW,215,0.0,0.0,97,0.00,,,0.01,Wunderground v.1.15,2013-10-18 08:05:00,
2013-10-18 04:10:00,38.5,38.0,29.93,SW,215,0.0,0.0,98,0.00,,,0.01,Wunderground v.1.15,2013-10-18 08:10:00,
2013-10-18 04:15:00,38.5,38.0,29.93,SW,217,0.0,0.0,98,0.00,,,0.01,Wunderground v.1.15,2013-10-18 08:15:00,
2013-10-18 04:20:00,38.3,37.8,29.93,SW,217,0.0,0.0,98,0.00,,,0.01,Wunderground v.1.15,2013-10-18 08:20:00,
2013-10-18 04:25:00,38.2,37.7,29.92,SW,217,0.0,0.0,98,0.00,,,0.01,Wunderground v.1.15,2013-10-18 08:25:00,
2013-10-18 04:30:00,37.9,37.1,29.92,SW,217,0.0,0.0,97,0.00,,,0.01,Wunderground v.1.15,2013-10-18 08:30:00,
2013-10-18 04:40:00,37.2,36.4,29.92,SW,217,0.0,0.0,97,0.00,,,0.01,Wunderground v.1.15,2013-10-18 08:40:00,
2013-10-18 04:45:00,37.3,36.8,29.92,SW,217,0.0,0.0,98,0.00,,,0.01,Wunderground v.1.15,2013-10-18 08:45:00,
2013-10-18 04:50:00,37.2,36.7,29.92,SW,217,0.0,0.0,98,0.00,,,0.01,Wunderground v.1.15,2013-10-18 08:50:00,
2013-10-18 04:55:00,37.0,36.5,29.92,SW,217,0.0,0.0,98,0.00,,,0.01,Wunderground v.1.15,2013-10-18 08:55:00,
2013-10-18 05:00:00,36.9,36.4,29.92,SW,217,0.0,0.0,98,0.00,,,0.01,Wunderground v.1.15,2013-10-18 09:00:00,
2013-10-18 05:10:00,36.7,36.2,29.92,SW,217,0.0,0.0,98,0.00,,,0.01,Wunderground v.1.15,2013-10-18 09:10:00,
2013-10-18 05:15:00,36.4,35.9,29.92,SW,217,0.0,0.0,98,0.00,,,0.01,Wunderground v.1.15,2013-10-18 09:15:00,
2013-10-18 05:20:00,36.4,35.9,29.92,SW,217,0.0,0.0,98,0.00,,,0.01,Wunderground v.1.15,2013-10-18 09:20:00,
2013-10-18 05:25:00,36.1,35.6,29.92,SW,217,0.0,0.0,98,0.00,,,0.01,Wunderground v.1.15,2013-10-18 09:25:00,
2013-10-18 05:30:00,36.0,35.5,29.92,SW,217,0.0,0.0,98,0.00,,,0.01,Wunderground v.1.15,2013-10-18 09:30:00,
2013-10-18 05:35:00,35.9,35.4,29.92,SW,217,0.0,0.0,98,0.00,,,0.01,Wunderground v.1.15,2013-10-18 09:35:00,
2013-10-18 05:45:00,35.9,35.4,29.92,SW,217,0.0,0.0,98,0.00,,,0.01,Wunderground v.1.15,2013-10-18 09:45:00,
2013-10-18 05:50:00,35.7,35.2,29.92,SW,217,0.0,0.0,98,0.00,,,0.01,Wunderground v.1.15,2013-10-18 09:50:00,
2013-10-18 05:55:00,35.6,35.1,29.92,SW,217,0.0,0.0,98,0.00,,,0.01,Wunderground v.1.15,2013-10-18 09:55:00,
2013-10-18 06:00:00,35.4,34.9,29.93,SW,217,0.0,0.0,98,0.00,,,0.01,Wunderground v.1.15,2013-10-18 10:00:00,
2013-10-18 06:10:00,35.5,35.0,29.93,SW,217,0.0,0.0,98,0.00,,,0.01,Wunderground v.1.15,2013-10-18 10:10:00,
2013-10-18 06:15:00,35.5,35.0,29.93,SW,217,0.0,0.0,98,0.00,,,0.01,Wunderground v.1.15,2013-10-18 10:15:00,
2013-10-18 06:20:00,35.3,34.8,29.93,SW,217,0.0,0.0,98,0.00,,,0.01,Wunderground v.1.15,2013-10-18 10:20:00,
2013-10-18 06:25:00,35.1,34.6,29.93,SW,217,0.0,0.0,98,0.00,,,0.01,Wunderground v.1.15,2013-10-18 10:25:00,
2013-10-18 06:30:00,35.4,34.9,29.93,SSW,206,0.0,0.0,98,0.00,,,0.01,Wunderground v.1.15,2013-10-18 10:30:00,
2013-10-18 06:35:00,36.0,35.5,29.93,SSW,207,0.0,0.0,98,0.00,,,0.01,Wunderground v.1.15,2013-10-18 10:35:00,
2013-10-18 06:40:00,36.1,35.6,29.93,SSW,207,0.0,0.0,98,0.00,,,0.01,Wunderground v.1.15,2013-10-18 10:40:00,
2013-10-18 06:50:00,36.2,35.7,29.92,SSW,207,0.0,0.0,98,0.00,,,0.01,Wunderground v.1.15,2013-10-18 10:50:00,
2013-10-18 06:55:00,36.1,35.6,29.93,SSW,207,0.0,0.0,98,0.00,,,0.01,Wunderground v.1.15,2013-10-18 10:55:00,
2013-10-18 07:00:00,35.8,35.3,29.92,SSW,207,0.0,0.0,98,0.00,,,0.01,Wunderground v.1.15,2013-10-18 11:00:00,
2013-10-18 07:10:00,35.9,35.4,29.92,SSW,207,0.0,0.0,98,0.00,,,0.01,Wunderground v.1.15,2013-10-18 11:10:00,
2013-10-18 07:15:00,35.6,35.1,29.93,SSW,207,0.0,0.0,98,0.00,,,0.01,Wunderground v.1.15,2013-10-18 11:15:00,
2013-10-18 07:20:00,35.7,35.2,29.93,SSW,207,0.0,0.0,98,0.00,,,0.01,Wunderground v.1.15,2013-10-18 11:20:00,
2013-10-18 07:25:00,35.7,35.2,29.93,SSW,207,0.0,0.0,98,0.00,,,0.01,Wunderground v.1.15,2013-10-18 11:25:00,
2013-10-18 07:30:00,35.4,34.9,29.93,SSW,207,0.0,0.0,98,0.00,,,0.01,Wunderground v.1.15,2013-10-18 11:30:00,
2013-10-18 07:35:00,35.3,34.8,29.93,SSW,207,0.0,0.0,98,0.00,,,0.01,Wunderground v.1.15,2013-10-18 11:35:00,
2013-10-18 07:40:00,35.5,35.0,29.93,SSW,207,0.0,0.0,98,0.00,,,0.01,Wunderground v.1.15,2013-10-18 11:40:00,
2013-10-18 07:50:00,35.1,34.8,29.93,SSW,207,0.0,0.0,99,0.00,,,0.01,Wunderground v.1.15,2013-10-18 11:50:00,
2013-10-18 07:55:00,35.1,34.8,29.93,SSW,207,0.0,0.0,99,0.00,,,0.01,Wunderground v.1.15,2013-10-18 11:55:00,
2013-10-18 08:00:00,35.6,35.3,29.93,SSW,209,0.0,0.0,99,0.00,,,0.01,Wunderground v.1.15,2013-10-18 12:00:00,
2013-10-18 08:10:00,35.9,35.6,29.93,SSW,210,0.0,0.0,99,0.00,,,0.01,Wunderground v.1.15,2013-10-18 12:10:00,
2013-10-18 08:15:00,36.2,35.9,29.93,SSW,210,0.0,0.0,99,0.00,,,0.01,Wunderground v.1.15,2013-10-18 12:15:00,
2013-10-18 08:25:00,36.6,36.3,29.93,SSW,212,0.0,0.0,99,0.00,,,0.01,Wunderground v.1.15,2013-10-18 12:25:00,
2013-10-18 08:30:00,36.8,36.5,29.93,SW,222,0.0,0.0,99,0.00,,,0.01,Wunderground v.1.15,2013-10-18 12:30:00,
2013-10-18 08:35:00,37.0,36.7,29.93,SW,222,0.0,0.0,99,0.00,,,0.01,Wunderground v.1.15,2013-10-18 12:35:00,
2013-10-18 08:40:00,37.3,37.0,29.94,SW,222,0.0,0.0,99,0.00,,,0.01,Wunderground v.1.15,2013-10-18 12:40:00,
2013-10-18 08:45:00,37.7,37.4,29.94,SW,223,0.0,0.0,99,0.00,,,0.01,Wunderground v.1.15,2013-10-18 12:45:00,
2013-10-18 08:55:00,38.2,37.9,29.94,SW,228,0.0,0.0,99,0.00,,,0.01,Wunderground v.1.15,2013-10-18 12:55:00,
2013-10-18 09:00:00,38.5,38.2,29.94,SW,236,0.0,0.0,99,0.00,,,0.01,Wunderground v.1.15,2013-10-18 13:00:00,
2013-10-18 09:10:00,39.2,38.9,29.95,WSW,247,0.0,0.0,99,0.00,,,0.01,Wunderground v.1.15,2013-10-18 13:10:00,
2013-10-18 09:15:00,39.5,39.2,29.95,South,186,0.0,1.0,99,0.00,,,0.01,Wunderground v.1.15,2013-10-18 13:15:00,
2013-10-18 09:20:00,39.8,39.5,29.95,SW,222,0.0,0.0,99,0.00,,,0.01,Wunderground v.1.15,2013-10-18 13:20:00,
2013-10-18 09:30:00,40.4,39.9,29.95,WNW,286,1.0,2.0,98,0.00,,,0.01,Wunderground v.1.15,2013-10-18 13:30:00,
2013-10-18 09:35:00,40.9,40.4,29.95,SSW,212,2.0,2.0,98,0.00,,,0.01,Wunderground v.1.15,2013-10-18 13:35:00,
2013-10-18 09:40:00,41.1,40.6,29.95,SW,236,2.0,2.0,98,0.00,,,0.01,Wunderground v.1.15,2013-10-18 13:40:00,
2013-10-18 09:45:00,41.6,40.8,29.96,SW,225,2.0,2.0,97,0.00,,,0.01,Wunderground v.1.15,2013-10-18 13:45:00,
2013-10-18 09:50:00,41.9,40.8,29.95,SW,236,2.0,2.0,96,0.00,,,0.01,Wunderground v.1.15,2013-10-18 13:50:00,
2013-10-18 10:00:00,42.9,41.6,29.96,SW,222,2.0,4.0,95,0.00,,,0.01,Wunderground v.1.15,2013-10-18 14:00:00,
2013-10-18 10:10:00,43.8,42.2,29.96,WSW,252,3.0,3.0,94,0.00,,,0.01,Wunderground v.1.15,2013-10-18 14:10:00,
2013-10-18 10:15:00,44.4,42.8,29.96,WSW,255,3.0,4.0,94,0.00,,,0.01,Wunderground v.1.15,2013-10-18 14:15:00,
2013-10-18 10:20:00,44.9,43.0,29.96,WSW,238,3.0,3.0,93,0.00,,,0.01,Wunderground v.1.15,2013-10-18 14:20:00,
2013-10-18 10:25:00,45.3,42.8,29.96,SW,226,3.0,5.0,91,0.00,,,0.01,Wunderground v.1.15,2013-10-18 14:25:00,
2013-10-18 10:35:00,46.3,43.5,29.96,SW,229,2.0,4.0,90,0.00,,,0.01,Wunderground v.1.15,2013-10-18 14:35:00,
2013-10-18 10:40:00,46.7,43.9,29.96,SW,229,2.0,5.0,90,0.00,,,0.01,Wunderground v.1.15,2013-10-18 14:40:00,
2013-10-18 10:45:00,47.0,43.6,29.96,SW,233,3.0,5.0,88,0.00,,,0.01,Wunderground v.1.15,2013-10-18 14:45:00,
2013-10-18 10:50:00,47.4,44.3,29.96,SW,218,3.0,3.0,89,0.00,,,0.01,Wunderground v.1.15,2013-10-18 14:50:00,
2013-10-18 10:55:00,47.9,44.2,29.96,West,266,3.0,7.0,87,0.00,,,0.01,Wunderground v.1.15,2013-10-18 14:55:00,
2013-10-18 11:00:00,48.4,44.7,29.96,SW,215,3.0,3.0,87,0.00,,,0.01,Wunderground v.1.15,2013-10-18 15:00:00,
2013-10-18 11:10:00,49.3,44.4,29.96,West,269,3.0,3.0,83,0.00,,,0.01,Wunderground v.1.15,2013-10-18 15:10:00,
2013-10-18 11:15:00,49.5,44.6,29.96,WNW,295,3.0,5.0,83,0.00,,,0.01,Wunderground v.1.15,2013-10-18 15:15:00,
2013-10-18 11:20:00,50.0,45.0,29.96,West,270,3.0,3.0,83,0.00,,,0.01,Wunderground v.1.15,2013-10-18 15:20:00,
2013-10-18 11:25:00,50.4,45.1,29.96,WSW,242,3.0,4.0,82,0.00,,,0.01,Wunderground v.1.15,2013-10-18 15:25:00,
2013-10-18 11:35:00,51.2,45.6,29.96,SW,226,3.0,4.0,81,0.00,,,0.01,Wunderground v.1.15,2013-10-18 15:35:00,
2013-10-18 11:40:00,51.5,45.5,29.96,SW,225,3.0,3.0,80,0.00,,,0.01,Wunderground v.1.15,2013-10-18 15:40:00,
2013-10-18 11:45:00,51.8,45.5,29.96,WSW,240,3.0,4.0,79,0.00,,,0.01,Wunderground v.1.15,2013-10-18 15:45:00,
2013-10-18 11:50:00,52.1,45.4,29.96,West,264,3.0,3.0,78,0.00,,,0.01,Wunderground v.1.15,2013-10-18 15:50:00,
2013-10-18 11:55:00,52.7,46.4,29.96,SSW,207,3.0,6.0,79,0.00,,,0.01,Wunderground v.1.15,2013-10-18 15:55:00,
2013-10-18 12:00:00,52.8,45.8,29.96,SSW,203,3.0,3.0,77,0.00,,,0.01,Wunderground v.1.15,2013-10-18 16:00:00,
2013-10-18 12:10:00,53.7,45.6,29.95,NW,308,4.0,4.0,74,0.00,,,0.01,Wunderground v.1.15,2013-10-18 16:10:00,
2013-10-18 12:15:00,54.1,46.0,29.96,SSW,204,4.0,4.0,74,0.00,,,0.01,Wunderground v.1.15,2013-10-18 16:15:00,
2013-10-18 12:20:00,54.3,45.8,29.95,WSW,245,3.0,4.0,73,0.00,,,0.01,Wunderground v.1.15,2013-10-18 16:20:00,
2013-10-18 12:25:00,54.7,45.8,29.96,SSW,203,3.0,4.0,72,0.00,,,0.01,Wunderground v.1.15,2013-10-18 16:25:00,
2013-10-18 12:30:00,54.9,45.7,29.95,SW,224,4.0,4.0,71,0.00,,,0.01,Wunderground v.1.15,2013-10-18 16:30:00,
2013-10-18 12:40:00,55.9,45.9,29.95,SW,221,3.0,4.0,69,0.00,,,0.01,Wunderground v.1.15,2013-10-18 16:40:00,
2013-10-18 12:45:00,56.1,46.4,29.95,WSW,252,4.0,4.0,70,0.00,,,0.01,Wunderground v.1.15,2013-10-18 16:45:00,
2013-10-18 12:50:00,56.6,45.4,29.94,WSW,238,4.0,4.0,66,0.00,,,0.01,Wunderground v.1.15,2013-10-18 16:50:00,
2013-10-18 12:55:00,56.8,45.2,29.95,West,278,4.0,8.0,65,0.00,,,0.01,Wunderground v.1.15,2013-10-18 16:55:00,
2013-10-18 13:00:00,56.9,46.1,29.94,SSW,207,5.0,5.0,67,0.00,,,0.01,Wunderground v.1.15,2013-10-18 17:00:00,
2013-10-18 13:10:00,57.5,46.2,29.94,SSW,207,4.0,4.0,66,0.00,,,0.01,Wunderground v.1.15,2013-10-18 17:10:00,
2013-10-18 13:15:00,57.8,45.7,29.94,West,277,4.0,5.0,64,0.00,,,0.01,Wunderground v.1.15,2013-10-18 17:15:00,
2013-10-18 13:20:00,57.7,45.2,29.94,WSW,250,5.0,7.0,63,0.00,,,0.01,Wunderground v.1.15,2013-10-18 17:20:00,
2013-10-18 13:25:00,57.8,45.7,29.94,WSW,257,6.0,7.0,64,0.00,,,0.01,Wunderground v.1.15,2013-10-18 17:25:00,
2013-10-18 13:30:00,58.3,44.9,29.94,WNW,295,6.0,6.0,61,0.00,,,0.01,Wunderground v.1.15,2013-10-18 17:30:00,
2013-10-18 13:35:00,58.1,44.7,29.94,NNW,333,8.0,8.0,61,0.00,,,0.01,Wunderground v.1.15,2013-10-18 17:35:00,
2013-10-18 13:40:00,58.6,44.8,29.94,West,260,8.0,9.0,60,0.00,,,0.01,Wunderground v.1.15,2013-10-18 17:40:00,
2013-10-18 13:45:00,58.5,44.2,29.93,WSW,242,7.0,9.0,59,0.00,,,0.01,Wunderground v.1.15,2013-10-18 17:45:00,
2013-10-18 13:50:00,58.7,44.0,29.93,West,274,8.0,8.0,58,0.00,,,0.01,Wunderground v.1.15,2013-10-18 17:50:00,
2013-10-18 13:55:00,58.8,43.1,29.93,SSW,210,8.0,10.0,56,0.00,,,0.01,Wunderground v.1.15,2013-10-18 17:55:00,
2013-10-18 14:00:00,58.6,43.4,29.93,WNW,294,8.0,8.0,57,0.00,,,0.01,Wunderground v.1.15,2013-10-18 18:00:00,
2013-10-18 14:10:00,59.2,44.9,29.93,WNW,301,6.0,8.0,59,0.00,,,0.01,Wunderground v.1.15,2013-10-18 18:10:00,
2013-10-18 14:15:00,58.4,44.1,29.93,WNW,290,8.0,12.0,59,0.00,,,0.01,Wunderground v.1.15,2013-10-18 18:15:00,
2013-10-18 14:20:00,58.0,43.7,29.93,NW,306,11.0,11.0,59,0.00,,,0.01,Wunderground v.1.15,2013-10-18 18:20:00,
2013-10-18 14:25:00,57.4,43.6,29.93,North,349,10.0,11.0,60,0.00,,,0.01,Wunderground v.1.15,2013-10-18 18:25:00,
2013-10-18 14:30:00,57.4,43.6,29.93,WSW,242,9.0,9.0,60,0.00,,,0.01,Wunderground v.1.15,2013-10-18 18:30:00,
2013-10-18 14:35:00,57.2,44.3,29.93,NW,305,8.0,9.0,62,0.00,,,0.01,Wunderground v.1.15,2013-10-18 18:35:00,
2013-10-18 14:45:00,56.8,45.2,29.93,WNW,301,7.0,9.0,65,0.00,,,0.01,Wunderground v.1.15,2013-10-18 18:45:00,
2013-10-18 14:50:00,56.5,44.9,29.93,WNW,301,9.0,9.0,65,0.00,,,0.01,Wunderground v.1.15,2013-10-18 18:50:00,
2013-10-18 14:55:00,56.4,45.6,29.93,NW,314,9.0,9.0,67,0.00,,,0.01,Wunderground v.1.15,2013-10-18 18:55:00,
2013-10-18 15:00:00,56.4,45.2,29.94,NW,310,9.0,11.0,66,0.00,,,0.01,Wunderground v.1.15,2013-10-18 19:00:00,
2013-10-18 15:10:00,56.5,46.1,29.93,NW,314,10.0,10.0,68,0.00,,,0.01,Wunderground v.1.15,2013-10-18 19:10:00,
2013-10-18 15:20:00,56.5,46.4,29.93,WNW,290,7.0,7.0,69,0.00,,,0.01,Wunderground v.1.15,2013-10-18 19:20:00,
2013-10-18 15:25:00,56.5,46.4,29.93,WNW,302,7.0,11.0,69,0.00,,,0.01,Wunderground v.1.15,2013-10-18 19:25:00,
2013-10-18 15:30:00,56.5,46.1,29.93,WNW,300,9.0,10.0,68,0.00,,,0.01,Wunderground v.1.15,2013-10-18 19:30:00,
2013-10-18 15:35:00,56.0,45.6,29.93,WNW,298,10.0,10.0,68,0.00,,,0.01,Wunderground v.1.15,2013-10-18 19:35:00,
2013-10-18 15:40:00,55.9,46.3,29.93,WNW,283,9.0,11.0,70,0.00,,,0.01,Wunderground v.1.15,2013-10-18 19:40:00,
2013-10-18 15:45:00,55.9,46.3,29.93,WSW,241,8.0,11.0,70,0.00,,,0.01,Wunderground v.1.15,2013-10-18 19:45:00,
2013-10-18 15:55:00,55.9,46.6,29.93,WNW,290,7.0,11.0,71,0.00,,,0.01,Wunderground v.1.15,2013-10-18 19:55:00,
2013-10-18 16:00:00,56.1,46.8,29.93,NW,304,7.0,7.0,71,0.00,,,0.01,Wunderground v.1.15,2013-10-18 20:00:00,
2013-10-18 16:10:00,55.7,46.8,29.93,WNW,295,6.0,6.0,72,0.00,,,0.01,Wunderground v.1.15,2013-10-18 20:10:00,
2013-10-18 16:15:00,55.1,46.2,29.93,WNW,298,7.0,9.0,72,0.00,,,0.01,Wunderground v.1.15,2013-10-18 20:15:00,
2013-10-18 16:25:00,54.1,45.6,29.93,WNW,302,8.0,9.0,73,0.00,,,0.01,Wunderground v.1.15,2013-10-18 20:25:00,
2013-10-18 16:30:00,53.6,45.9,29.93,WNW,297,8.0,10.0,75,0.00,,,0.01,Wunderground v.1.15,2013-10-18 20:30:00,
2013-10-18 16:35:00,53.4,46.0,29.93,WNW,287,7.0,10.0,76,0.00,,,0.01,Wunderground v.1.15,2013-10-18 20:35:00,
2013-10-18 16:40:00,53.2,45.8,29.93,West,281,8.0,8.0,76,0.00,,,0.01,Wunderground v.1.15,2013-10-18 20:40:00,
2013-10-18 16:45:00,53.3,45.9,29.93,West,276,8.0,8.0,76,0.00,,,0.01,Wunderground v.1.15,2013-10-18 20:45:00,
2013-10-18 16:50:00,52.7,45.7,29.93,WNW,291,7.0,7.0,77,0.00,,,0.01,Wunderground v.1.15,2013-10-18 20:50:00,
2013-10-18 17:00:00,52.3,45.6,29.93,NNW,335,7.0,7.0,78,0.00,,,0.01,Wunderground v.1.15,2013-10-18 21:00:00,
2013-10-18 17:10:00,51.7,45.4,29.94,NW,308,9.0,10.0,79,0.00,,,0.01,Wunderground v.1.15,2013-10-18 21:10:00,
2013-10-18 17:15:00,51.0,45.0,29.94,West,262,9.0,10.0,80,0.00,,,0.01,Wunderground v.1.15,2013-10-18 21:15:00,
2013-10-18 17:20:00,50.6,45.0,29.94,WNW,290,9.0,9.0,81,0.00,,,0.01,Wunderground v.1.15,2013-10-18 21:20:00,
2013-10-18 17:30:00,49.9,44.6,29.95,WNW,295,10.0,13.0,82,0.00,,,0.01,Wunderground v.1.15,2013-10-18 21:30:00,
2013-10-18 17:35:00,49.5,44.6,29.95,NW,313,10.0,13.0,83,0.00,,,0.01,Wunderground v.1.15,2013-10-18 21:35:00,
2013-10-18 17:40:00,49.2,43.9,29.95,WNW,302,10.0,10.0,82,0.00,,,0.01,Wunderground v.1.15,2013-10-18 21:40:00,
2013-10-18 17:45:00,49.0,43.7,29.95,West,271,10.0,10.0,82,0.00,,,0.01,Wunderground v.1.15,2013-10-18 21:45:00,
2013-10-18 17:50:00,48.9,43.6,29.96,WNW,292,9.0,9.0,82,0.00,,,0.01,Wunderground v.1.15,2013-10-18 21:50:00,
2013-10-18 17:55:00,48.7,43.5,29.96,West,271,9.0,9.0,82,0.00,,,0.01,Wunderground v.1.15,2013-10-18 21:55:00,
2013-10-18 18:00:00,48.4,43.5,29.96,WNW,293,9.0,9.0,83,0.00,,,0.01,Wunderground v.1.15,2013-10-18 22:00:00,
2013-10-18 18:10:00,48.0,43.1,29.97,WNW,287,9.0,10.0,83,0.00,,,0.01,Wunderground v.1.15,2013-10-18 22:10:00,
2013-10-18 18:20:00,47.6,42.4,29.97,NW,305,10.0,10.0,82,0.00,,,0.01,Wunderground v.1.15,2013-10-18 22:20:00,
2013-10-18 18:25:00,47.4,42.2,29.98,West,281,10.0,10.0,82,0.00,,,0.01,Wunderground v.1.15,2013-10-18 22:25:00,
2013-10-18 18:30:00,47.4,41.9,29.98,WNW,288,8.0,8.0,81,0.00,,,0.01,Wunderground v.1.15,2013-10-18 22:30:00,
2013-10-18 18:35:00,47.4,41.9,29.98,NW,308,6.0,9.0,81,0.00,,,0.01,Wunderground v.1.15,2013-10-18 22:35:00,
2013-10-18 18:40:00,47.3,41.8,29.98,West,263,6.0,6.0,81,0.00,,,0.01,Wunderground v.1.15,2013-10-18 22:40:00,
2013-10-18 18:45:00,47.2,41.7,29.98,West,278,5.0,6.0,81,0.00,,,0.01,Wunderground v.1.15,2013-10-18 22:45:00,
2013-10-18 18:50:00,47.2,41.7,29.98,WNW,298,4.0,4.0,81,0.00,,,0.01,Wunderground v.1.15,2013-10-18 22:50:00,
2013-10-18 18:55:00,47.1,41.6,29.99,West,280,5.0,5.0,81,0.00,,,0.01,Wunderground v.1.15,2013-10-18 22:55:00,
2013-10-18 19:00:00,47.0,41.5,29.98,WNW,282,4.0,4.0,81,0.00,,,0.01,Wunderground v.1.15,2013-10-18 23:00:00,
2013-10-18 19:10:00,46.8,41.3,29.99,NW,312,2.0,2.0,81,0.00,,,0.01,Wunderground v.1.15,2013-10-18 23:10:00,
2013-10-18 19:15:00,46.7,41.2,29.99,WNW,294,2.0,2.0,81,0.00,,,0.01,Wunderground v.1.15,2013-10-18 23:15:00,
2013-10-18 19:20:00,46.6,41.1,29.99,WNW,294,3.0,5.0,81,0.00,,,0.01,Wunderground v.1.15,2013-10-18 23:20:00,
2013-10-18 19:25:00,46.7,41.2,29.99,WNW,294,3.0,5.0,81,0.00,,,0.01,Wunderground v.1.15,2013-10-18 23:25:00,
2013-10-18 19:30:00,46.6,41.1,29.99,NW,315,4.0,4.0,81,0.00,,,0.01,Wunderground v.1.15,2013-10-18 23:30:00,
2013-10-18 19:40:00,46.6,41.1,29.99,WNW,294,3.0,3.0,81,0.00,,,0.01,Wunderground v.1.15,2013-10-18 23:40:00,
2013-10-18 19:45:00,46.5,41.3,29.99,NW,314,3.0,3.0,82,0.00,,,0.01,Wunderground v.1.15,2013-10-18 23:45:00,
2013-10-18 19:50:00,46.4,41.2,29.99,West,267,2.0,2.0,82,0.00,,,0.01,Wunderground v.1.15,2013-10-18 23:50:00,
2013-10-18 19:55:00,46.2,41.0,29.99,WSW,240,2.0,5.0,82,0.00,,,0.01,Wunderground v.1.15,2013-10-18 23:55:00,
2013-10-18 20:00:00,46.2,41.0,29.99,West,270,2.0,2.0,82,0.00,,,0.01,Wunderground v.1.15,2013-10-19 00:00:00,
2013-10-18 20:10:00,46.0,41.1,29.99,WSW,239,1.0,3.0,83,0.00,,,0.01,Wunderground v.1.15,2013-10-19 00:10:00,
2013-10-18 20:15:00,45.9,41.0,29.99,West,266,1.0,3.0,83,0.00,,,0.01,Wunderground v.1.15,2013-10-19 00:15:00,
2013-10-18 20:20:00,45.8,40.9,30.00,WNW,283,1.0,3.0,83,0.00,,,0.01,Wunderground v.1.15,2013-10-19 00:20:00,
2013-10-18 20:25:00,45.7,40.8,30.00,WSW,250,1.0,3.0,83,0.00,,,0.01,Wunderground v.1.15,2013-10-19 00:25:00,
2013-10-18 20:30:00,45.7,40.8,30.00,West,276,1.0,1.0,83,0.00,,,0.01,Wunderground v.1.15,2013-10-19 00:30:00,
2013-10-18 20:35:00,45.5,40.6,30.00,West,280,1.0,1.0,83,0.00,,,0.01,Wunderground v.1.15,2013-10-19 00:35:00,
2013-10-18 20:45:00,45.1,40.2,30.00,West,268,1.0,1.0,83,0.00,,,0.01,Wunderground v.1.15,2013-10-19 00:45:00,
2013-10-18 20:50:00,44.9,40.4,30.00,WSW,248,2.0,2.0,84,0.00,,,0.01,Wunderground v.1.15,2013-10-19 00:50:00,
2013-10-18 20:55:00,44.7,40.2,30.00,West,262,2.0,2.0,84,0.00,,,0.01,Wunderground v.1.15,2013-10-19 00:55:00,
2013-10-18 21:00:00,44.5,40.0,30.00,WSW,255,1.0,2.0,84,0.00,,,0.01,Wunderground v.1.15,2013-10-19 01:00:00,
2013-10-18 21:10:00,44.4,39.9,29.99,West,277,2.0,2.0,84,0.00,,,0.01,Wunderground v.1.15,2013-10-19 01:10:00,
2013-10-18 21:15:00,44.1,39.6,30.00,WNW,287,1.0,2.0,84,0.00,,,0.01,Wunderground v.1.15,2013-10-19 01:15:00,
2013-10-18 21:20:00,44.1,39.9,30.00,SW,226,2.0,2.0,85,0.00,,,0.01,Wunderground v.1.15,2013-10-19 01:20:00,
2013-10-18 21:25:00,44.0,39.8,30.00,SW,224,2.0,2.0,85,0.00,,,0.01,Wunderground v.1.15,2013-10-19 01:25:00,
2013-10-18 21:30:00,44.0,39.8,30.00,West,259,2.0,2.0,85,0.00,,,0.01,Wunderground v.1.15,2013-10-19 01:30:00,
2013-10-18 21:35:00,44.0,39.8,30.00,SW,216,2.0,3.0,85,0.00,,,0.01,Wunderground v.1.15,2013-10-19 01:35:00,
2013-10-18 21:40:00,44.0,39.5,30.00,WSW,252,2.0,6.0,84,0.00,,,0.01,Wunderground v.1.15,2013-10-19 01:40:00,
2013-10-18 21:45:00,44.0,39.5,30.00,West,264,2.0,6.0,84,0.00,,,0.01,Wunderground v.1.15,2013-10-19 01:45:00,
2013-10-18 21:50:00,43.7,39.2,29.99,WSW,256,1.0,2.0,84,0.00,,,0.01,Wunderground v.1.15,2013-10-19 01:50:00,
2013-10-18 21:55:00,43.5,39.0,29.99,West,259,1.0,2.0,84,0.00,,,0.01,Wunderground v.1.15,2013-10-19 01:55:00,
2013-10-18 22:00:00,43.3,38.8,30.00,West,274,1.0,1.0,84,0.00,,,0.01,Wunderground v.1.15,2013-10-19 02:00:00,
2013-10-18 22:10:00,43.1,38.6,29.99,WNW,282,1.0,1.0,84,0.00,,,0.01,Wunderground v.1.15,2013-10-19 02:10:00,
2013-10-18 22:20:00,42.8,38.6,30.00,West,278,1.0,1.0,85,0.00,,,0.01,Wunderground v.1.15,2013-10-19 02:20:00,
2013-10-18 22:25:00,42.6,38.4,29.99,WSW,255,1.0,1.0,85,0.00,,,0.01,Wunderground v.1.15,2013-10-19 02:25:00,
2013-10-18 22:30:00,42.5,38.3,29.99,WSW,243,1.0,1.0,85,0.00,,,0.01,Wunderground v.1.15,2013-10-19 02:30:00,
2013-10-18 22:35:00,42.5,38.3,29.98,West,260,1.0,1.0,85,0.00,,,0.01,Wunderground v.1.15,2013-10-19 02:35:00,
2013-10-18 22:40:00,42.3,38.1,29.99,WNW,289,1.0,1.0,85,0.00,,,0.01,Wunderground v.1.15,2013-10-19 02:40:00,
2013-10-18 22:50:00,41.9,38.0,29.99,WNW,282,1.0,1.0,86,0.00,,,0.01,Wunderground v.1.15,2013-10-19 02:50:00,
2013-10-18 22:55:00,41.9,38.0,29.99,SW,236,1.0,1.0,86,0.00,,,0.01,Wunderground v.1.15,2013-10-19 02:55:00,
2013-10-18 23:00:00,41.9,38.0,29.99,SW,229,1.0,1.0,86,0.00,,,0.01,Wunderground v.1.15,2013-10-19 03:00:00,
2013-10-18 23:10:00,42.0,38.1,29.98,SW,222,1.0,2.0,86,0.00,,,0.01,Wunderground v.1.15,2013-10-19 03:10:00,
2013-10-18 23:15:00,42.1,38.2,29.98,SW,215,1.0,2.0,86,0.00,,,0.01,Wunderground v.1.15,2013-10-19 03:15:00,
2013-10-18 23:25:00,42.0,37.8,29.98,West,264,1.0,2.0,85,0.00,,,0.01,Wunderground v.1.15,2013-10-19 03:25:00,
2013-10-18 23:30:00,42.1,37.9,29.98,SW,226,1.0,2.0,85,0.00,,,0.01,Wunderground v.1.15,2013-10-19 03:30:00,
2013-10-18 23:35:00,42.1,37.9,29.98,WSW,247,1.0,2.0,85,0.00,,,0.01,Wunderground v.1.15,2013-10-19 03:35:00,
2013-10-18 23:40:00,42.1,37.9,29.98,WSW,255,1.0,1.0,85,0.00,,,0.01,Wunderground v.1.15,2013-10-19 03:40:00,
2013-10-18 23:45:00,42.1,38.2,29.98,West,266,1.0,1.0,86,0.00,,,0.01,Wunderground v.1.15,2013-10-19 03:45:00,
2013-10-18 23:55:00,42.0,37.8,29.97,West,269,0.0,1.0,85,0.00,,,0.01,Wunderground v.1.15,2013-10-19 03:55:00,